US-0749 weather

Public forecast

Using degrees Fahrenheit for public forecast. Weather courtesy of forecast.io.

Closest aviation weather report (METAR) to Ashland airport

Closest report is Presque Isle International Airport, 15.4 nm (28.5 km) ENE. Retrieved 2020/08/11 11:56 UTC (37 minutes ago):

KPQI 111156Z AUTO 16004KT 10SM FEW033 SCT042 SCT060 21/19 A2993 RMK AO2 SLP158 T02060189 10206 20156 51010

Closest aviation forecast (TAF) to Ashland airport

Closest forecast is Presque Isle International Airport, 15.4 nm (28.5 km) ENE. Retrieved 2020/08/11 12:34 UTC (0 seconds ago):

TAF KPQI 111132Z 1112/1212 19008KT P6SM BKN040 FM111800 21010KT P6SM VCSH BKN040 FM112200 21008KT P6SM VCTS BKN040CB FM120200 20006KT 4SM -SHRA VCTS SCT015 OVC025CB FM120800 20006KT 3SM -SHRA BR VCTS OVC008CB